sensor_id;sensor_type;location;lat;lon;timestamp;P1;durP1;ratioP1;P2;durP2;ratioP2
20110;SDS011;10216;42.658;23.248;2023-04-25T00:00:47;3.47;;;1.50;;
20110;SDS011;10216;42.658;23.248;2023-04-25T00:03:12;1.30;;;1.20;;
20110;SDS011;10216;42.658;23.248;2023-04-25T00:05:38;1.10;;;1.10;;
20110;SDS011;10216;42.658;23.248;2023-04-25T00:08:04;1.73;;;1.33;;
20110;SDS011;10216;42.658;23.248;2023-04-25T00:10:29;4.20;;;1.43;;
20110;SDS011;10216;42.658;23.248;2023-04-25T00:12:54;1.43;;;1.33;;
20110;SDS011;10216;42.658;23.248;2023-04-25T00:15:22;0.70;;;0.70;;
20110;SDS011;10216;42.658;23.248;2023-04-25T00:17:47;0.77;;;0.77;;
20110;SDS011;10216;42.658;23.248;2023-04-25T00:20:15;0.80;;;0.80;;
20110;SDS011;10216;42.658;23.248;2023-04-25T00:22:40;0.53;;;0.53;;
20110;SDS011;10216;42.658;23.248;2023-04-25T00:25:06;0.83;;;0.60;;
20110;SDS011;10216;42.658;23.248;2023-04-25T00:27:31;0.67;;;0.67;;
20110;SDS011;10216;42.658;23.248;2023-04-25T00:29:57;0.73;;;0.73;;
20110;SDS011;10216;42.658;23.248;2023-04-25T00:32:22;0.70;;;0.70;;
20110;SDS011;10216;42.658;23.248;2023-04-25T00:34:47;1.00;;;1.00;;
20110;SDS011;10216;42.658;23.248;2023-04-25T00:37:13;1.43;;;1.00;;
20110;SDS011;10216;42.658;23.248;2023-04-25T00:39:38;0.90;;;0.87;;
20110;SDS011;10216;42.658;23.248;2023-04-25T00:42:03;1.00;;;0.90;;
20110;SDS011;10216;42.658;23.248;2023-04-25T00:44:29;0.93;;;0.93;;
20110;SDS011;10216;42.658;23.248;2023-04-25T00:46:54;1.03;;;0.80;;
20110;SDS011;10216;42.658;23.248;2023-04-25T00:49:20;1.23;;;1.10;;
20110;SDS011;10216;42.658;23.248;2023-04-25T00:51:45;0.97;;;0.90;;
20110;SDS011;10216;42.658;23.248;2023-04-25T00:54:12;1.63;;;1.23;;
20110;SDS011;10216;42.658;23.248;2023-04-25T00:56:37;2.50;;;0.87;;
20110;SDS011;10216;42.658;23.248;2023-04-25T00:59:03;0.90;;;0.87;;
20110;SDS011;10216;42.658;23.248;2023-04-25T01:01:28;0.87;;;0.87;;
20110;SDS011;10216;42.658;23.248;2023-04-25T01:03:54;0.60;;;0.60;;
20110;SDS011;10216;42.658;23.248;2023-04-25T01:06:19;1.53;;;1.00;;
20110;SDS011;10216;42.658;23.248;2023-04-25T01:08:44;1.03;;;0.93;;
20110;SDS011;10216;42.658;23.248;2023-04-25T01:11:09;1.00;;;0.90;;
20110;SDS011;10216;42.658;23.248;2023-04-25T01:13:35;1.23;;;0.93;;
20110;SDS011;10216;42.658;23.248;2023-04-25T01:16:00;2.53;;;0.80;;
20110;SDS011;10216;42.658;23.248;2023-04-25T01:18:26;3.13;;;1.33;;
20110;SDS011;10216;42.658;23.248;2023-04-25T01:20:52;0.90;;;0.90;;
20110;SDS011;10216;42.658;23.248;2023-04-25T01:23:18;1.17;;;0.97;;
20110;SDS011;10216;42.658;23.248;2023-04-25T01:25:43;1.53;;;1.40;;
20110;SDS011;10216;42.658;23.248;2023-04-25T01:28:09;1.00;;;0.97;;
20110;SDS011;10216;42.658;23.248;2023-04-25T01:30:34;1.57;;;1.30;;
20110;SDS011;10216;42.658;23.248;2023-04-25T01:32:59;0.80;;;0.80;;
20110;SDS011;10216;42.658;23.248;2023-04-25T01:35:25;1.43;;;0.80;;
20110;SDS011;10216;42.658;23.248;2023-04-25T01:37:50;1.20;;;1.10;;
20110;SDS011;10216;42.658;23.248;2023-04-25T01:40:16;0.73;;;0.73;;
20110;SDS011;10216;42.658;23.248;2023-04-25T01:42:42;2.07;;;1.00;;
20110;SDS011;10216;42.658;23.248;2023-04-25T01:45:08;2.00;;;1.00;;
20110;SDS011;10216;42.658;23.248;2023-04-25T01:47:34;1.50;;;1.40;;
20110;SDS011;10216;42.658;23.248;2023-04-25T01:50:03;1.27;;;1.17;;
20110;SDS011;10216;42.658;23.248;2023-04-25T01:52:28;1.50;;;1.37;;
20110;SDS011;10216;42.658;23.248;2023-04-25T01:54:53;1.47;;;1.03;;
20110;SDS011;10216;42.658;23.248;2023-04-25T01:57:19;1.73;;;1.00;;
20110;SDS011;10216;42.658;23.248;2023-04-25T01:59:45;2.20;;;1.37;;
20110;SDS011;10216;42.658;23.248;2023-04-25T02:02:10;1.20;;;1.10;;
20110;SDS011;10216;42.658;23.248;2023-04-25T02:04:36;1.70;;;1.40;;
20110;SDS011;10216;42.658;23.248;2023-04-25T02:07:01;1.60;;;1.50;;
20110;SDS011;10216;42.658;23.248;2023-04-25T02:09:29;1.43;;;1.20;;
20110;SDS011;10216;42.658;23.248;2023-04-25T02:11:54;2.07;;;1.80;;
20110;SDS011;10216;42.658;23.248;2023-04-25T02:14:19;2.47;;;2.00;;
20110;SDS011;10216;42.658;23.248;2023-04-25T02:16:45;1.70;;;1.60;;
20110;SDS011;10216;42.658;23.248;2023-04-25T02:19:11;1.90;;;1.37;;
20110;SDS011;10216;42.658;23.248;2023-04-25T02:21:36;1.50;;;1.40;;
20110;SDS011;10216;42.658;23.248;2023-04-25T02:24:01;1.60;;;1.50;;
20110;SDS011;10216;42.658;23.248;2023-04-25T02:26:27;1.87;;;1.70;;
20110;SDS011;10216;42.658;23.248;2023-04-25T02:28:52;2.20;;;1.90;;
20110;SDS011;10216;42.658;23.248;2023-04-25T02:31:17;2.20;;;1.60;;
20110;SDS011;10216;42.658;23.248;2023-04-25T02:33:43;2.07;;;1.80;;
20110;SDS011;10216;42.658;23.248;2023-04-25T02:36:08;2.23;;;1.60;;
20110;SDS011;10216;42.658;23.248;2023-04-25T02:38:33;3.13;;;1.43;;
20110;SDS011;10216;42.658;23.248;2023-04-25T02:40:59;2.67;;;1.90;;
20110;SDS011;10216;42.658;23.248;2023-04-25T02:43:24;2.60;;;2.07;;
20110;SDS011;10216;42.658;23.248;2023-04-25T02:45:49;4.00;;;2.57;;
20110;SDS011;10216;42.658;23.248;2023-04-25T02:48:14;2.43;;;2.20;;
20110;SDS011;10216;42.658;23.248;2023-04-25T02:50:40;3.97;;;2.60;;
20110;SDS011;10216;42.658;23.248;2023-04-25T02:53:05;2.57;;;2.00;;
20110;SDS011;10216;42.658;23.248;2023-04-25T02:55:30;2.37;;;2.00;;
20110;SDS011;10216;42.658;23.248;2023-04-25T02:57:55;2.07;;;1.87;;
20110;SDS011;10216;42.658;23.248;2023-04-25T03:00:21;3.07;;;2.30;;
20110;SDS011;10216;42.658;23.248;2023-04-25T03:02:47;4.73;;;2.20;;
20110;SDS011;10216;42.658;23.248;2023-04-25T03:05:12;2.70;;;2.37;;
20110;SDS011;10216;42.658;23.248;2023-04-25T03:07:37;4.03;;;2.70;;
20110;SDS011;10216;42.658;23.248;2023-04-25T03:10:04;3.10;;;2.80;;
20110;SDS011;10216;42.658;23.248;2023-04-25T03:12:30;1.97;;;1.80;;
20110;SDS011;10216;42.658;23.248;2023-04-25T03:14:56;4.63;;;3.00;;
20110;SDS011;10216;42.658;23.248;2023-04-25T03:17:21;3.83;;;3.10;;
20110;SDS011;10216;42.658;23.248;2023-04-25T03:19:46;4.37;;;2.90;;
20110;SDS011;10216;42.658;23.248;2023-04-25T03:22:11;3.73;;;3.00;;
20110;SDS011;10216;42.658;23.248;2023-04-25T03:24:36;5.17;;;3.13;;
20110;SDS011;10216;42.658;23.248;2023-04-25T03:27:02;4.80;;;3.47;;
20110;SDS011;10216;42.658;23.248;2023-04-25T03:29:27;3.17;;;2.57;;
20110;SDS011;10216;42.658;23.248;2023-04-25T03:31:53;3.43;;;2.90;;
20110;SDS011;10216;42.658;23.248;2023-04-25T03:34:19;5.30;;;3.63;;
20110;SDS011;10216;42.658;23.248;2023-04-25T03:36:44;3.30;;;2.67;;
20110;SDS011;10216;42.658;23.248;2023-04-25T03:39:09;1.97;;;1.70;;
20110;SDS011;10216;42.658;23.248;2023-04-25T03:41:34;2.53;;;2.30;;
20110;SDS011;10216;42.658;23.248;2023-04-25T03:44:00;3.23;;;2.20;;
20110;SDS011;10216;42.658;23.248;2023-04-25T03:46:25;3.03;;;2.57;;
20110;SDS011;10216;42.658;23.248;2023-04-25T03:48:50;2.40;;;1.70;;
20110;SDS011;10216;42.658;23.248;2023-04-25T03:51:15;2.87;;;2.27;;
20110;SDS011;10216;42.658;23.248;2023-04-25T03:53:41;3.33;;;2.57;;
20110;SDS011;10216;42.658;23.248;2023-04-25T03:56:06;4.00;;;2.53;;
20110;SDS011;10216;42.658;23.248;2023-04-25T03:58:31;6.90;;;4.07;;
20110;SDS011;10216;42.658;23.248;2023-04-25T04:00:56;4.90;;;3.07;;
20110;SDS011;10216;42.658;23.248;2023-04-25T04:03:22;4.80;;;3.33;;
20110;SDS011;10216;42.658;23.248;2023-04-25T04:05:47;6.47;;;3.40;;
20110;SDS011;10216;42.658;23.248;2023-04-25T04:08:12;4.77;;;3.47;;
20110;SDS011;10216;42.658;23.248;2023-04-25T04:10:37;5.13;;;3.73;;
20110;SDS011;10216;42.658;23.248;2023-04-25T04:13:03;4.70;;;3.57;;
20110;SDS011;10216;42.658;23.248;2023-04-25T04:15:28;4.63;;;2.93;;
20110;SDS011;10216;42.658;23.248;2023-04-25T04:17:54;4.70;;;2.90;;
20110;SDS011;10216;42.658;23.248;2023-04-25T04:20:19;4.60;;;3.23;;
20110;SDS011;10216;42.658;23.248;2023-04-25T04:22:45;3.57;;;3.10;;
20110;SDS011;10216;42.658;23.248;2023-04-25T04:25:10;3.00;;;2.23;;
20110;SDS011;10216;42.658;23.248;2023-04-25T04:27:36;5.20;;;3.47;;
20110;SDS011;10216;42.658;23.248;2023-04-25T04:30:02;4.10;;;3.07;;
20110;SDS011;10216;42.658;23.248;2023-04-25T04:32:28;4.80;;;3.23;;
20110;SDS011;10216;42.658;23.248;2023-04-25T04:34:55;4.53;;;2.53;;
20110;SDS011;10216;42.658;23.248;2023-04-25T04:37:20;3.90;;;3.00;;
20110;SDS011;10216;42.658;23.248;2023-04-25T04:39:46;3.43;;;2.20;;
20110;SDS011;10216;42.658;23.248;2023-04-25T04:42:12;2.20;;;1.70;;
20110;SDS011;10216;42.658;23.248;2023-04-25T04:44:38;2.13;;;1.93;;
20110;SDS011;10216;42.658;23.248;2023-04-25T04:47:04;1.93;;;1.30;;
20110;SDS011;10216;42.658;23.248;2023-04-25T04:49:32;1.50;;;1.40;;
20110;SDS011;10216;42.658;23.248;2023-04-25T04:51:57;1.40;;;1.30;;
20110;SDS011;10216;42.658;23.248;2023-04-25T04:54:24;1.67;;;1.40;;
20110;SDS011;10216;42.658;23.248;2023-04-25T04:56:50;1.90;;;1.57;;
20110;SDS011;10216;42.658;23.248;2023-04-25T04:59:16;2.53;;;1.70;;
20110;SDS011;10216;42.658;23.248;2023-04-25T05:01:41;4.07;;;2.73;;
20110;SDS011;10216;42.658;23.248;2023-04-25T05:04:06;3.80;;;2.97;;
20110;SDS011;10216;42.658;23.248;2023-04-25T05:06:31;2.30;;;2.10;;
20110;SDS011;10216;42.658;23.248;2023-04-25T05:08:57;2.33;;;1.73;;
20110;SDS011;10216;42.658;23.248;2023-04-25T05:11:23;3.23;;;2.53;;
20110;SDS011;10216;42.658;23.248;2023-04-25T05:13:49;3.70;;;2.87;;
20110;SDS011;10216;42.658;23.248;2023-04-25T05:16:14;3.77;;;2.77;;
20110;SDS011;10216;42.658;23.248;2023-04-25T05:18:39;3.80;;;2.90;;
20110;SDS011;10216;42.658;23.248;2023-04-25T05:21:05;3.87;;;3.17;;
20110;SDS011;10216;42.658;23.248;2023-04-25T05:23:31;4.00;;;2.40;;
20110;SDS011;10216;42.658;23.248;2023-04-25T05:25:56;4.63;;;3.30;;
20110;SDS011;10216;42.658;23.248;2023-04-25T05:28:21;4.17;;;3.30;;
20110;SDS011;10216;42.658;23.248;2023-04-25T05:30:47;5.20;;;3.70;;
20110;SDS011;10216;42.658;23.248;2023-04-25T05:33:12;3.57;;;2.87;;
20110;SDS011;10216;42.658;23.248;2023-04-25T05:35:37;4.00;;;3.43;;
20110;SDS011;10216;42.658;23.248;2023-04-25T05:38:02;3.47;;;3.17;;
20110;SDS011;10216;42.658;23.248;2023-04-25T05:40:27;5.90;;;3.77;;
20110;SDS011;10216;42.658;23.248;2023-04-25T05:42:53;5.17;;;4.10;;
20110;SDS011;10216;42.658;23.248;2023-04-25T05:45:19;5.73;;;4.77;;
20110;SDS011;10216;42.658;23.248;2023-04-25T05:47:45;4.90;;;4.30;;
20110;SDS011;10216;42.658;23.248;2023-04-25T05:50:11;4.20;;;3.13;;
20110;SDS011;10216;42.658;23.248;2023-04-25T05:52:36;4.57;;;3.13;;
20110;SDS011;10216;42.658;23.248;2023-04-25T05:55:01;5.27;;;3.50;;
20110;SDS011;10216;42.658;23.248;2023-04-25T05:57:27;6.37;;;3.80;;
20110;SDS011;10216;42.658;23.248;2023-04-25T05:59:52;5.73;;;3.83;;
20110;SDS011;10216;42.658;23.248;2023-04-25T06:02:20;4.53;;;3.43;;
20110;SDS011;10216;42.658;23.248;2023-04-25T06:04:46;10.50;;;6.53;;
20110;SDS011;10216;42.658;23.248;2023-04-25T06:07:11;5.10;;;3.97;;
20110;SDS011;10216;42.658;23.248;2023-04-25T06:09:37;6.57;;;4.07;;
20110;SDS011;10216;42.658;23.248;2023-04-25T06:12:04;4.87;;;3.93;;
20110;SDS011;10216;42.658;23.248;2023-04-25T06:14:29;6.33;;;4.13;;
20110;SDS011;10216;42.658;23.248;2023-04-25T06:16:55;7.17;;;4.73;;
20110;SDS011;10216;42.658;23.248;2023-04-25T06:19:20;5.47;;;4.00;;
20110;SDS011;10216;42.658;23.248;2023-04-25T06:21:45;8.77;;;6.10;;
20110;SDS011;10216;42.658;23.248;2023-04-25T06:24:11;7.77;;;5.17;;
20110;SDS011;10216;42.658;23.248;2023-04-25T06:26:36;8.23;;;5.60;;
20110;SDS011;10216;42.658;23.248;2023-04-25T06:29:01;6.10;;;4.80;;
20110;SDS011;10216;42.658;23.248;2023-04-25T06:31:27;4.67;;;4.03;;
20110;SDS011;10216;42.658;23.248;2023-04-25T06:33:54;6.13;;;4.20;;
20110;SDS011;10216;42.658;23.248;2023-04-25T06:36:20;5.57;;;4.43;;
20110;SDS011;10216;42.658;23.248;2023-04-25T06:38:49;5.97;;;4.37;;
20110;SDS011;10216;42.658;23.248;2023-04-25T06:41:15;6.77;;;4.73;;
20110;SDS011;10216;42.658;23.248;2023-04-25T06:43:40;7.23;;;4.20;;
20110;SDS011;10216;42.658;23.248;2023-04-25T06:46:05;8.10;;;5.30;;
20110;SDS011;10216;42.658;23.248;2023-04-25T06:48:30;8.17;;;5.10;;
20110;SDS011;10216;42.658;23.248;2023-04-25T06:50:56;7.27;;;4.60;;
20110;SDS011;10216;42.658;23.248;2023-04-25T06:53:21;4.73;;;3.80;;
20110;SDS011;10216;42.658;23.248;2023-04-25T06:55:46;7.63;;;5.33;;
20110;SDS011;10216;42.658;23.248;2023-04-25T06:58:12;3.90;;;3.30;;
20110;SDS011;10216;42.658;23.248;2023-04-25T07:00:37;5.40;;;3.77;;
20110;SDS011;10216;42.658;23.248;2023-04-25T07:03:02;5.50;;;4.00;;
20110;SDS011;10216;42.658;23.248;2023-04-25T07:05:27;5.67;;;4.20;;
20110;SDS011;10216;42.658;23.248;2023-04-25T07:07:53;6.87;;;3.93;;
20110;SDS011;10216;42.658;23.248;2023-04-25T07:10:18;4.30;;;3.63;;
20110;SDS011;10216;42.658;23.248;2023-04-25T07:12:43;4.33;;;3.50;;
20110;SDS011;10216;42.658;23.248;2023-04-25T07:15:09;5.80;;;3.67;;
20110;SDS011;10216;42.658;23.248;2023-04-25T07:17:35;4.67;;;4.10;;
20110;SDS011;10216;42.658;23.248;2023-04-25T07:20:00;5.67;;;3.57;;
20110;SDS011;10216;42.658;23.248;2023-04-25T07:22:26;6.70;;;4.07;;
20110;SDS011;10216;42.658;23.248;2023-04-25T07:24:51;5.80;;;3.80;;
20110;SDS011;10216;42.658;23.248;2023-04-25T07:27:18;11.57;;;7.07;;
20110;SDS011;10216;42.658;23.248;2023-04-25T07:29:43;5.40;;;3.60;;
20110;SDS011;10216;42.658;23.248;2023-04-25T07:32:08;5.03;;;3.17;;
20110;SDS011;10216;42.658;23.248;2023-04-25T07:34:35;4.93;;;3.80;;
20110;SDS011;10216;42.658;23.248;2023-04-25T07:37:02;4.80;;;3.80;;
20110;SDS011;10216;42.658;23.248;2023-04-25T07:39:27;5.00;;;3.73;;
20110;SDS011;10216;42.658;23.248;2023-04-25T07:41:52;4.00;;;3.53;;
20110;SDS011;10216;42.658;23.248;2023-04-25T07:44:20;2.33;;;1.83;;
20110;SDS011;10216;42.658;23.248;2023-04-25T07:46:45;1.50;;;1.40;;
20110;SDS011;10216;42.658;23.248;2023-04-25T07:49:12;2.30;;;1.90;;
20110;SDS011;10216;42.658;23.248;2023-04-25T07:51:37;3.60;;;2.00;;
20110;SDS011;10216;42.658;23.248;2023-04-25T07:54:02;1.40;;;1.30;;
20110;SDS011;10216;42.658;23.248;2023-04-25T07:56:28;1.30;;;1.20;;
20110;SDS011;10216;42.658;23.248;2023-04-25T07:58:53;1.17;;;1.07;;
20110;SDS011;10216;42.658;23.248;2023-04-25T08:01:18;1.20;;;1.10;;
20110;SDS011;10216;42.658;23.248;2023-04-25T08:03:45;2.47;;;1.03;;
20110;SDS011;10216;42.658;23.248;2023-04-25T08:06:11;0.77;;;0.77;;
20110;SDS011;10216;42.658;23.248;2023-04-25T08:08:36;0.60;;;0.60;;
20110;SDS011;10216;42.658;23.248;2023-04-25T08:11:01;0.50;;;0.50;;
20110;SDS011;10216;42.658;23.248;2023-04-25T08:13:26;0.90;;;0.90;;
20110;SDS011;10216;42.658;23.248;2023-04-25T08:15:52;0.60;;;0.60;;
20110;SDS011;10216;42.658;23.248;2023-04-25T08:18:17;0.80;;;0.80;;
20110;SDS011;10216;42.658;23.248;2023-04-25T08:20:43;0.80;;;0.80;;
20110;SDS011;10216;42.658;23.248;2023-04-25T08:23:08;0.80;;;0.80;;
20110;SDS011;10216;42.658;23.248;2023-04-25T08:25:33;1.23;;;0.80;;
20110;SDS011;10216;42.658;23.248;2023-04-25T08:27:58;0.60;;;0.60;;
20110;SDS011;10216;42.658;23.248;2023-04-25T08:30:24;0.73;;;0.73;;
20110;SDS011;10216;42.658;23.248;2023-04-25T08:32:49;0.70;;;0.70;;
20110;SDS011;10216;42.658;23.248;2023-04-25T08:35:15;4.80;;;1.30;;
20110;SDS011;10216;42.658;23.248;2023-04-25T08:37:41;2.57;;;1.90;;
20110;SDS011;10216;42.658;23.248;2023-04-25T08:40:06;0.93;;;0.80;;
20110;SDS011;10216;42.658;23.248;2023-04-25T08:42:36;1.07;;;0.93;;
20110;SDS011;10216;42.658;23.248;2023-04-25T08:45:02;0.80;;;0.80;;
20110;SDS011;10216;42.658;23.248;2023-04-25T08:47:28;0.60;;;0.60;;
20110;SDS011;10216;42.658;23.248;2023-04-25T08:49:54;0.67;;;0.67;;
20110;SDS011;10216;42.658;23.248;2023-04-25T08:52:21;0.70;;;0.70;;
20110;SDS011;10216;42.658;23.248;2023-04-25T08:54:48;0.60;;;0.60;;
20110;SDS011;10216;42.658;23.248;2023-04-25T08:57:13;0.50;;;0.50;;
20110;SDS011;10216;42.658;23.248;2023-04-25T08:59:40;1.17;;;1.03;;
20110;SDS011;10216;42.658;23.248;2023-04-25T09:02:09;0.50;;;0.50;;
20110;SDS011;10216;42.658;23.248;2023-04-25T09:04:40;0.70;;;0.70;;
20110;SDS011;10216;42.658;23.248;2023-04-25T09:07:07;0.60;;;0.60;;
20110;SDS011;10216;42.658;23.248;2023-04-25T09:09:32;0.70;;;0.70;;
20110;SDS011;10216;42.658;23.248;2023-04-25T09:11:57;0.50;;;0.50;;
20110;SDS011;10216;42.658;23.248;2023-04-25T09:14:24;0.67;;;0.67;;
20110;SDS011;10216;42.658;23.248;2023-04-25T09:21:55;1.60;;;0.67;;
20110;SDS011;10216;42.658;23.248;2023-04-25T09:24:39;0.30;;;0.30;;
20110;SDS011;10216;42.658;23.248;2023-04-25T09:29:34;0.40;;;0.40;;
20110;SDS011;10216;42.658;23.248;2023-04-25T09:34:38;0.30;;;0.30;;
20110;SDS011;10216;42.658;23.248;2023-04-25T09:37:04;0.40;;;0.40;;
20110;SDS011;10216;42.658;23.248;2023-04-25T09:39:30;0.60;;;0.50;;
20110;SDS011;10216;42.658;23.248;2023-04-25T09:41:59;0.50;;;0.50;;
20110;SDS011;10216;42.658;23.248;2023-04-25T09:44:24;0.37;;;0.37;;
20110;SDS011;10216;42.658;23.248;2023-04-25T09:46:49;0.40;;;0.40;;
20110;SDS011;10216;42.658;23.248;2023-04-25T09:49:19;0.20;;;0.20;;
20110;SDS011;10216;42.658;23.248;2023-04-25T09:51:53;0.20;;;0.20;;
20110;SDS011;10216;42.658;23.248;2023-04-25T09:54:18;1.17;;;0.30;;
20110;SDS011;10216;42.658;23.248;2023-04-25T09:56:44;0.30;;;0.30;;
20110;SDS011;10216;42.658;23.248;2023-04-25T09:59:12;0.87;;;0.53;;
20110;SDS011;10216;42.658;23.248;2023-04-25T10:01:38;0.30;;;0.30;;
20110;SDS011;10216;42.658;23.248;2023-04-25T10:04:05;0.53;;;0.30;;
20110;SDS011;10216;42.658;23.248;2023-04-25T10:06:31;0.30;;;0.30;;
20110;SDS011;10216;42.658;23.248;2023-04-25T10:08:58;0.20;;;0.20;;
20110;SDS011;10216;42.658;23.248;2023-04-25T10:11:25;0.60;;;0.60;;
20110;SDS011;10216;42.658;23.248;2023-04-25T10:13:53;0.50;;;0.50;;
20110;SDS011;10216;42.658;23.248;2023-04-25T10:16:18;0.83;;;0.50;;
20110;SDS011;10216;42.658;23.248;2023-04-25T10:18:44;0.40;;;0.40;;
20110;SDS011;10216;42.658;23.248;2023-04-25T10:21:10;0.30;;;0.30;;
20110;SDS011;10216;42.658;23.248;2023-04-25T10:23:35;0.40;;;0.40;;
20110;SDS011;10216;42.658;23.248;2023-04-25T10:26:01;0.30;;;0.30;;
20110;SDS011;10216;42.658;23.248;2023-04-25T10:28:27;0.20;;;0.20;;
20110;SDS011;10216;42.658;23.248;2023-04-25T10:33:29;0.80;;;0.30;;
20110;SDS011;10216;42.658;23.248;2023-04-25T10:35:54;0.23;;;0.23;;
20110;SDS011;10216;42.658;23.248;2023-04-25T10:38:22;0.37;;;0.37;;
20110;SDS011;10216;42.658;23.248;2023-04-25T10:41:07;0.20;;;0.20;;
20110;SDS011;10216;42.658;23.248;2023-04-25T10:43:38;0.37;;;0.37;;
20110;SDS011;10216;42.658;23.248;2023-04-25T10:48:46;0.30;;;0.30;;
20110;SDS011;10216;42.658;23.248;2023-04-25T10:51:18;0.37;;;0.37;;
20110;SDS011;10216;42.658;23.248;2023-04-25T10:53:44;0.30;;;0.30;;
20110;SDS011;10216;42.658;23.248;2023-04-25T10:56:19;0.20;;;0.20;;
20110;SDS011;10216;42.658;23.248;2023-04-25T10:58:45;0.30;;;0.30;;
20110;SDS011;10216;42.658;23.248;2023-04-25T11:01:11;0.23;;;0.23;;
20110;SDS011;10216;42.658;23.248;2023-04-25T11:03:40;0.30;;;0.30;;
20110;SDS011;10216;42.658;23.248;2023-04-25T11:06:07;0.30;;;0.30;;
20110;SDS011;10216;42.658;23.248;2023-04-25T11:09:09;0.27;;;0.27;;
20110;SDS011;10216;42.658;23.248;2023-04-25T11:11:28;0.30;;;0.20;;
20110;SDS011;10216;42.658;23.248;2023-04-25T11:13:53;0.40;;;0.40;;
20110;SDS011;10216;42.658;23.248;2023-04-25T11:16:18;1.60;;;0.40;;
20110;SDS011;10216;42.658;23.248;2023-04-25T11:18:44;0.30;;;0.30;;
20110;SDS011;10216;42.658;23.248;2023-04-25T11:21:10;0.30;;;0.30;;
20110;SDS011;10216;42.658;23.248;2023-04-25T11:23:35;0.30;;;0.30;;
20110;SDS011;10216;42.658;23.248;2023-04-25T11:26:01;3.50;;;0.70;;
20110;SDS011;10216;42.658;23.248;2023-04-25T11:28:27;0.40;;;0.40;;
20110;SDS011;10216;42.658;23.248;2023-04-25T11:30:52;0.53;;;0.30;;
20110;SDS011;10216;42.658;23.248;2023-04-25T11:33:18;0.40;;;0.40;;
20110;SDS011;10216;42.658;23.248;2023-04-25T11:35:47;0.40;;;0.40;;
20110;SDS011;10216;42.658;23.248;2023-04-25T11:38:12;0.40;;;0.40;;
20110;SDS011;10216;42.658;23.248;2023-04-25T11:40:38;0.37;;;0.37;;
20110;SDS011;10216;42.658;23.248;2023-04-25T11:43:03;0.30;;;0.30;;
20110;SDS011;10216;42.658;23.248;2023-04-25T11:45:28;0.30;;;0.30;;
20110;SDS011;10216;42.658;23.248;2023-04-25T11:47:55;0.83;;;0.30;;
20110;SDS011;10216;42.658;23.248;2023-04-25T11:50:22;0.20;;;0.20;;
20110;SDS011;10216;42.658;23.248;2023-04-25T11:52:47;0.27;;;0.27;;
20110;SDS011;10216;42.658;23.248;2023-04-25T11:55:13;0.40;;;0.40;;
20110;SDS011;10216;42.658;23.248;2023-04-25T11:57:39;0.77;;;0.50;;
20110;SDS011;10216;42.658;23.248;2023-04-25T12:00:08;0.50;;;0.50;;
20110;SDS011;10216;42.658;23.248;2023-04-25T12:02:36;0.60;;;0.50;;
20110;SDS011;10216;42.658;23.248;2023-04-25T12:05:01;0.30;;;0.30;;
20110;SDS011;10216;42.658;23.248;2023-04-25T12:07:29;1.03;;;0.50;;
20110;SDS011;10216;42.658;23.248;2023-04-25T12:09:55;0.57;;;0.43;;
20110;SDS011;10216;42.658;23.248;2023-04-25T12:12:20;0.40;;;0.40;;
20110;SDS011;10216;42.658;23.248;2023-04-25T12:14:48;0.20;;;0.20;;
20110;SDS011;10216;42.658;23.248;2023-04-25T12:17:14;0.20;;;0.20;;
20110;SDS011;10216;42.658;23.248;2023-04-25T12:19:39;0.30;;;0.30;;
20110;SDS011;10216;42.658;23.248;2023-04-25T12:22:18;0.20;;;0.20;;
20110;SDS011;10216;42.658;23.248;2023-04-25T12:24:44;0.43;;;0.20;;
20110;SDS011;10216;42.658;23.248;2023-04-25T12:27:10;0.20;;;0.20;;
20110;SDS011;10216;42.658;23.248;2023-04-25T12:29:35;0.30;;;0.30;;
20110;SDS011;10216;42.658;23.248;2023-04-25T12:32:01;0.30;;;0.30;;
20110;SDS011;10216;42.658;23.248;2023-04-25T12:34:29;1.03;;;0.40;;
20110;SDS011;10216;42.658;23.248;2023-04-25T12:42:56;0.47;;;0.37;;
20110;SDS011;10216;42.658;23.248;2023-04-25T12:45:22;0.40;;;0.40;;
20110;SDS011;10216;42.658;23.248;2023-04-25T12:47:48;0.73;;;0.40;;
20110;SDS011;10216;42.658;23.248;2023-04-25T12:50:13;0.47;;;0.30;;
20110;SDS011;10216;42.658;23.248;2023-04-25T12:52:38;0.40;;;0.40;;
20110;SDS011;10216;42.658;23.248;2023-04-25T12:55:03;0.50;;;0.50;;
20110;SDS011;10216;42.658;23.248;2023-04-25T12:57:29;0.33;;;0.33;;
20110;SDS011;10216;42.658;23.248;2023-04-25T12:59:54;0.40;;;0.40;;
20110;SDS011;10216;42.658;23.248;2023-04-25T13:02:20;1.20;;;0.40;;
20110;SDS011;10216;42.658;23.248;2023-04-25T13:04:45;0.60;;;0.60;;
20110;SDS011;10216;42.658;23.248;2023-04-25T13:07:11;0.50;;;0.50;;
20110;SDS011;10216;42.658;23.248;2023-04-25T13:09:36;4.40;;;0.50;;
20110;SDS011;10216;42.658;23.248;2023-04-25T13:12:01;0.87;;;0.50;;
20110;SDS011;10216;42.658;23.248;2023-04-25T13:14:27;1.43;;;0.53;;
20110;SDS011;10216;42.658;23.248;2023-04-25T13:16:52;0.70;;;0.50;;
20110;SDS011;10216;42.658;23.248;2023-04-25T13:19:18;0.60;;;0.47;;
20110;SDS011;10216;42.658;23.248;2023-04-25T13:21:43;0.37;;;0.37;;
20110;SDS011;10216;42.658;23.248;2023-04-25T13:24:08;0.37;;;0.37;;
20110;SDS011;10216;42.658;23.248;2023-04-25T13:26:33;0.73;;;0.73;;
20110;SDS011;10216;42.658;23.248;2023-04-25T13:28:59;0.60;;;0.60;;
20110;SDS011;10216;42.658;23.248;2023-04-25T13:31:25;0.80;;;0.80;;
20110;SDS011;10216;42.658;23.248;2023-04-25T13:33:50;1.17;;;0.60;;
20110;SDS011;10216;42.658;23.248;2023-04-25T13:36:15;0.50;;;0.50;;
20110;SDS011;10216;42.658;23.248;2023-04-25T13:38:41;0.73;;;0.43;;
20110;SDS011;10216;42.658;23.248;2023-04-25T13:41:08;0.80;;;0.60;;
20110;SDS011;10216;42.658;23.248;2023-04-25T13:43:36;0.40;;;0.40;;
20110;SDS011;10216;42.658;23.248;2023-04-25T13:46:01;2.63;;;0.53;;
20110;SDS011;10216;42.658;23.248;2023-04-25T13:48:26;0.40;;;0.40;;
20110;SDS011;10216;42.658;23.248;2023-04-25T13:50:51;0.70;;;0.53;;
20110;SDS011;10216;42.658;23.248;2023-04-25T13:53:17;0.30;;;0.30;;
20110;SDS011;10216;42.658;23.248;2023-04-25T13:55:42;0.70;;;0.40;;
20110;SDS011;10216;42.658;23.248;2023-04-25T13:58:07;0.40;;;0.40;;
20110;SDS011;10216;42.658;23.248;2023-04-25T14:00:37;2.33;;;0.57;;
20110;SDS011;10216;42.658;23.248;2023-04-25T14:03:03;0.40;;;0.40;;
20110;SDS011;10216;42.658;23.248;2023-04-25T14:05:31;0.40;;;0.40;;
20110;SDS011;10216;42.658;23.248;2023-04-25T14:07:57;1.80;;;0.50;;
20110;SDS011;10216;42.658;23.248;2023-04-25T14:10:22;0.50;;;0.50;;
20110;SDS011;10216;42.658;23.248;2023-04-25T14:12:47;0.40;;;0.40;;
20110;SDS011;10216;42.658;23.248;2023-04-25T14:15:12;1.53;;;0.60;;
20110;SDS011;10216;42.658;23.248;2023-04-25T14:17:38;0.63;;;0.63;;
20110;SDS011;10216;42.658;23.248;2023-04-25T14:20:03;1.33;;;0.70;;
20110;SDS011;10216;42.658;23.248;2023-04-25T14:22:30;0.83;;;0.80;;
20110;SDS011;10216;42.658;23.248;2023-04-25T14:24:56;2.37;;;1.93;;
20110;SDS011;10216;42.658;23.248;2023-04-25T14:27:21;7.37;;;3.50;;
20110;SDS011;10216;42.658;23.248;2023-04-25T14:29:46;1.13;;;1.00;;
20110;SDS011;10216;42.658;23.248;2023-04-25T14:32:12;0.87;;;0.70;;
20110;SDS011;10216;42.658;23.248;2023-04-25T14:34:37;1.27;;;0.70;;
20110;SDS011;10216;42.658;23.248;2023-04-25T14:37:03;1.23;;;0.50;;
20110;SDS011;10216;42.658;23.248;2023-04-25T14:39:28;0.77;;;0.70;;
20110;SDS011;10216;42.658;23.248;2023-04-25T14:41:53;0.60;;;0.60;;
20110;SDS011;10216;42.658;23.248;2023-04-25T14:44:18;1.10;;;1.10;;
20110;SDS011;10216;42.658;23.248;2023-04-25T14:46:44;0.70;;;0.70;;